Time;durP1;ratioP1;P1;durP2;ratioP2;P2;SDS_P1;SDS_P2;PMS_P1;PMS_P2;Temp;Humidity;BMP_temperature;BMP_pressure;BME280_temperature;BME280_humidity;BME280_pressure;Samples;Min_cycle;Max_cycle;Signal;HPM_P1;HPM_P2
2021/12/25 00:01:25;;;;;;;9.20;8.40;;;;;;;;;;5064501;28;20792;-80
2021/12/25 00:03:53;;;;;;;8.90;8.00;;;;;;;;;;5072613;28;20959;-80
2021/12/25 00:06:22;;;;;;;8.43;7.73;;;;;;;;;;5071377;28;20846;-79
2021/12/25 00:08:49;;;;;;;10.47;9.57;;;;;;;;;;5071888;28;20429;-79
2021/12/25 00:11:16;;;;;;;11.30;10.20;;;;;;;;;;5070997;28;20452;-79
2021/12/25 00:13:44;;;;;;;9.77;8.73;;;;;;;;;;5072143;28;20494;-80
2021/12/25 00:16:11;;;;;;;8.60;7.53;;;;;;;;;;5070669;28;20444;-80
2021/12/25 00:18:39;;;;;;;8.90;8.10;;;;;;;;;;5071209;28;20440;-78
2021/12/25 00:21:07;;;;;;;8.90;8.20;;;;;;;;;;5073568;28;21185;-80
2021/12/25 00:23:35;;;;;;;8.60;7.80;;;;;;;;;;5077610;28;20440;-79
2021/12/25 00:26:07;;;;;;;8.30;7.50;;;;;;;;;;5077373;28;20475;-80
2021/12/25 00:28:54;;;;;;;8.27;7.57;;;;;;;;;;5078783;28;20428;-80
2021/12/25 00:31:41;;;;;;;9.03;8.20;;;;;;;;;;5076506;28;20295;-80
2021/12/25 00:34:10;;;;;;;9.63;8.60;;;;;;;;;;5074202;28;20915;-78
2021/12/25 00:36:37;;;;;;;10.67;9.60;;;;;;;;;;5074911;28;20468;-79
2021/12/25 00:39:06;;;;;;;10.67;9.67;;;;;;;;;;5074920;28;20449;-79
2021/12/25 00:41:33;;;;;;;8.57;7.90;;;;;;;;;;5076420;28;20433;-79
2021/12/25 00:44:00;;;;;;;14.70;12.60;;;;;;;;;;5074175;28;20447;-78
2021/12/25 00:46:27;;;;;;;12.43;11.13;;;;;;;;;;5074701;28;20474;-79
2021/12/25 00:48:54;;;;;;;12.07;10.95;;;;;;;;;;5074795;28;20455;-78
2021/12/25 00:51:21;;;;;;;10.00;9.10;;;;;;;;;;5074560;28;20260;-78
2021/12/25 00:53:48;;;;;;;9.00;8.30;;;;;;;;;;5074692;28;20444;-80
2021/12/25 00:56:16;;;;;;;10.33;8.90;;;;;;;;;;5076204;28;20460;-79
2021/12/25 00:58:43;;;;;;;10.83;10.00;;;;;;;;;;5075273;28;20808;-78
2021/12/25 01:01:11;;;;;;;11.55;10.45;;;;;;;;;;5075090;28;20436;-80
2021/12/25 01:03:38;;;;;;;10.27;9.37;;;;;;;;;;5074681;28;20202;-79
2021/12/25 01:06:05;;;;;;;10.13;9.30;;;;;;;;;;5075879;28;20448;-80
2021/12/25 01:08:32;;;;;;;11.40;10.30;;;;;;;;;;5074852;28;20447;-79
2021/12/25 01:10:59;;;;;;;10.93;9.90;;;;;;;;;;5075030;28;20487;-79
2021/12/25 01:13:30;;;;;;;12.30;9.57;;;;;;;;;;5076414;28;20472;-79
2021/12/25 01:16:12;;;;;;;10.40;9.50;;;;;;;;;;5068294;28;20503;-78
2021/12/25 01:19:02;;;;;;;10.67;9.67;;;;;;;;;;5056738;28;20449;-78
2021/12/25 01:21:48;;;;;;;10.43;9.50;;;;;;;;;;5070739;28;20440;-80
2021/12/25 01:24:46;;;;;;;10.13;9.13;;;;;;;;;;5080222;28;20438;-80
2021/12/25 01:30:05;;;;;;;11.10;10.03;;;;;;;;;;5077893;28;20232;-79
2021/12/25 01:35:42;;;;;;;10.47;9.47;;;;;;;;;;5037909;28;20506;-80
2021/12/25 01:38:23;;;;;;;10.93;9.93;;;;;;;;;;5079230;28;20443;-80
2021/12/25 01:40:59;;;;;;;11.23;10.23;;;;;;;;;;5074545;28;20427;-78
2021/12/25 01:49:08;;;;;;;12.60;11.30;;;;;;;;;;5065480;28;20446;-80
2021/12/25 01:51:35;;;;;;;11.70;10.60;;;;;;;;;;5077089;28;20475;-79
2021/12/25 01:54:02;;;;;;;11.90;10.80;;;;;;;;;;5077090;28;20198;-80
2021/12/25 01:56:29;;;;;;;12.37;11.30;;;;;;;;;;5075776;28;20475;-79
2021/12/25 01:58:57;;;;;;;13.40;12.10;;;;;;;;;;5073057;28;20444;-79
2021/12/25 02:01:25;;;;;;;13.85;12.55;;;;;;;;;;5074411;28;20438;-80
2021/12/25 02:03:52;;;;;;;12.90;11.70;;;;;;;;;;5073392;28;20205;-80
2021/12/25 02:06:19;;;;;;;14.15;12.25;;;;;;;;;;5074615;28;20487;-79
2021/12/25 02:08:46;;;;;;;13.33;12.23;;;;;;;;;;5073860;28;20229;-78
2021/12/25 02:11:14;;;;;;;14.87;13.37;;;;;;;;;;5074256;28;20558;-79
2021/12/25 02:13:42;;;;;;;13.40;12.10;;;;;;;;;;5076419;28;20935;-79
2021/12/25 02:16:13;;;;;;;14.43;13.13;;;;;;;;;;5075126;28;20866;-78
2021/12/25 02:18:59;;;;;;;13.83;12.43;;;;;;;;;;5073055;28;20511;-78
2021/12/25 02:21:34;;;;;;;13.43;12.03;;;;;;;;;;5072513;28;20432;-78
2021/12/25 02:24:01;;;;;;;13.90;12.60;;;;;;;;;;5073622;28;20922;-79
2021/12/25 02:26:28;;;;;;;14.27;12.98;;;;;;;;;;5087823;28;20533;-79
2021/12/25 02:28:55;;;;;;;14.20;12.90;;;;;;;;;;5088543;28;20209;-79
2021/12/25 02:31:23;;;;;;;15.27;13.70;;;;;;;;;;5092053;28;20476;-79
2021/12/25 02:33:50;;;;;;;14.97;13.57;;;;;;;;;;5091847;28;20440;-79
2021/12/25 02:36:17;;;;;;;14.27;12.83;;;;;;;;;;5085497;28;20966;-79
2021/12/25 02:38:46;;;;;;;15.00;13.60;;;;;;;;;;5080294;28;20458;-78
2021/12/25 02:41:13;;;;;;;14.75;13.10;;;;;;;;;;5082250;28;20443;-79
2021/12/25 02:43:43;;;;;;;15.75;14.18;;;;;;;;;;5080827;28;20215;-79
2021/12/25 02:46:10;;;;;;;13.63;12.32;;;;;;;;;;5082642;28;20221;-79
2021/12/25 02:48:37;;;;;;;14.87;13.40;;;;;;;;;;5082480;28;20205;-78
2021/12/25 02:51:05;;;;;;;15.63;13.87;;;;;;;;;;5085838;28;20541;-80
2021/12/25 02:53:32;;;;;;;15.55;13.77;;;;;;;;;;5078315;28;20484;-80
2021/12/25 02:56:01;;;;;;;16.13;14.57;;;;;;;;;;5088082;28;20201;-78
2021/12/25 02:58:28;;;;;;;17.27;15.47;;;;;;;;;;5098373;28;20450;-80
2021/12/25 03:00:58;;;;;;;16.23;14.65;;;;;;;;;;5098335;28;20429;-81
2021/12/25 03:03:25;;;;;;;17.17;15.63;;;;;;;;;;5097864;28;20181;-81
2021/12/25 03:05:52;;;;;;;16.23;14.57;;;;;;;;;;5097736;28;20448;-80
2021/12/25 03:08:20;;;;;;;18.07;14.27;;;;;;;;;;5097913;28;20435;-80
2021/12/25 03:10:48;;;;;;;18.27;13.90;;;;;;;;;;5097570;28;20498;-79
2021/12/25 03:13:32;;;;;;;16.87;15.17;;;;;;;;;;5097630;28;20432;-80
2021/12/25 03:15:59;;;;;;;16.73;15.13;;;;;;;;;;5096838;28;20460;-81
2021/12/25 03:18:28;;;;;;;15.83;14.33;;;;;;;;;;5096824;28;20428;-78
2021/12/25 03:20:58;;;;;;;16.53;15.07;;;;;;;;;;5084219;28;20447;-79
2021/12/25 03:23:25;;;;;;;16.20;14.57;;;;;;;;;;5071900;28;20441;-80
2021/12/25 03:25:53;;;;;;;15.65;13.48;;;;;;;;;;5071784;28;20456;-79
2021/12/25 03:28:23;;;;;;;14.88;13.50;;;;;;;;;;5072333;28;20204;-79
2021/12/25 03:30:50;;;;;;;17.23;15.43;;;;;;;;;;5071769;28;20483;-79
2021/12/25 03:33:18;;;;;;;16.23;14.73;;;;;;;;;;5071847;28;20432;-79
2021/12/25 03:35:46;;;;;;;14.90;13.43;;;;;;;;;;5072387;28;20457;-79
2021/12/25 03:38:14;;;;;;;12.50;11.30;;;;;;;;;;5072169;28;20447;-79
2021/12/25 03:40:41;;;;;;;12.47;9.50;;;;;;;;;;5072572;28;20468;-80
2021/12/25 03:43:08;;;;;;;11.50;10.27;;;;;;;;;;5071673;28;20480;-79
2021/12/25 03:45:37;;;;;;;8.87;8.07;;;;;;;;;;5071710;28;20508;-78
2021/12/25 03:48:09;;;;;;;8.70;7.90;;;;;;;;;;5072303;28;20450;-79
2021/12/25 03:53:38;;;;;;;9.10;7.78;;;;;;;;;;5072434;28;20513;-79
2021/12/25 03:58:50;;;;;;;9.03;8.23;;;;;;;;;;5076982;28;20938;-80
2021/12/25 04:01:30;;;;;;;9.77;8.70;;;;;;;;;;5076569;28;20441;-80
2021/12/25 04:04:07;;;;;;;7.80;6.87;;;;;;;;;;5075639;28;20428;-80
2021/12/25 04:06:35;;;;;;;7.50;6.80;;;;;;;;;;5075363;28;20867;-79
2021/12/25 04:09:08;;;;;;;6.53;6.03;;;;;;;;;;5077352;28;20455;-80
2021/12/25 04:11:36;;;;;;;7.05;6.32;;;;;;;;;;5076946;28;20992;-80
2021/12/25 04:14:03;;;;;;;5.37;4.87;;;;;;;;;;5076033;28;20639;-80
2021/12/25 04:16:31;;;;;;;5.20;4.80;;;;;;;;;;5080118;28;20475;-81
2021/12/25 04:18:58;;;;;;;5.90;4.50;;;;;;;;;;5076605;28;20451;-79
2021/12/25 04:21:25;;;;;;;5.30;4.80;;;;;;;;;;5076090;28;20440;-79
2021/12/25 04:23:52;;;;;;;4.40;4.10;;;;;;;;;;5078365;28;20444;-79
2021/12/25 04:26:22;;;;;;;4.13;3.73;;;;;;;;;;5077628;28;20462;-79
2021/12/25 04:29:02;;;;;;;4.97;4.47;;;;;;;;;;5076222;28;20794;-80
2021/12/25 04:31:36;;;;;;;4.60;4.10;;;;;;;;;;5077778;28;20873;-80
2021/12/25 04:48:23;;;;;;;5.57;5.07;;;;;;;;;;5076011;28;20494;-81
2021/12/25 05:02:01;;;;;;;5.40;4.90;;;;;;;;;;5075533;28;20780;-80
2021/12/25 05:04:32;;;;;;;4.73;4.43;;;;;;;;;;5076142;28;20436;-79
2021/12/25 05:07:01;;;;;;;5.13;4.73;;;;;;;;;;5075301;28;20520;-79
2021/12/25 05:09:28;;;;;;;7.20;6.50;;;;;;;;;;5074485;28;20451;-79
2021/12/25 05:11:55;;;;;;;5.53;4.40;;;;;;;;;;5076006;28;20466;-80
2021/12/25 05:14:22;;;;;;;6.43;5.85;;;;;;;;;;5078819;28;20204;-79
2021/12/25 05:16:50;;;;;;;7.13;5.20;;;;;;;;;;5077364;28;20221;-82
2021/12/25 05:19:17;;;;;;;4.07;3.77;;;;;;;;;;5079371;28;20452;-80
2021/12/25 05:21:44;;;;;;;4.17;3.77;;;;;;;;;;5075641;28;20447;-79
2021/12/25 05:24:12;;;;;;;3.73;3.10;;;;;;;;;;5085618;28;20489;-78
2021/12/25 05:26:39;;;;;;;4.43;3.37;;;;;;;;;;5091934;28;20463;-79
2021/12/25 05:29:07;;;;;;;3.83;3.63;;;;;;;;;;5088618;28;20447;-79
2021/12/25 05:31:35;;;;;;;3.87;3.57;;;;;;;;;;5093066;28;20214;-79
2021/12/25 05:34:02;;;;;;;3.63;3.30;;;;;;;;;;5077614;28;20456;-80
2021/12/25 05:36:29;;;;;;;3.90;3.50;;;;;;;;;;5075821;28;20472;-79
2021/12/25 05:38:58;;;;;;;4.05;3.75;;;;;;;;;;5075341;28;20874;-79
2021/12/25 05:41:27;;;;;;;4.77;3.70;;;;;;;;;;5094915;28;20185;-79
2021/12/25 05:43:54;;;;;;;3.30;3.03;;;;;;;;;;5099757;28;20443;-78
2021/12/25 05:46:22;;;;;;;4.30;4.00;;;;;;;;;;5099498;28;20458;-80
2021/12/25 05:48:50;;;;;;;3.80;3.60;;;;;;;;;;5090916;28;20267;-79
2021/12/25 05:51:18;;;;;;;3.90;3.60;;;;;;;;;;5090975;28;20476;-79
2021/12/25 05:53:46;;;;;;;3.67;3.45;;;;;;;;;;5089690;28;20473;-79
2021/12/25 05:56:13;;;;;;;3.70;3.40;;;;;;;;;;5089717;28;20218;-78
2021/12/25 05:58:42;;;;;;;3.90;3.60;;;;;;;;;;5089402;28;20784;-79
2021/12/25 06:01:11;;;;;;;4.20;3.92;;;;;;;;;;5080249;28;20472;-80
2021/12/25 06:03:38;;;;;;;4.20;3.90;;;;;;;;;;5098513;28;20193;-79
2021/12/25 06:06:06;;;;;;;4.93;4.53;;;;;;;;;;5098067;28;20438;-80
2021/12/25 06:08:33;;;;;;;4.60;4.20;;;;;;;;;;5097989;28;20186;-80
2021/12/25 06:11:02;;;;;;;6.32;5.72;;;;;;;;;;5087107;28;20496;-79
2021/12/25 06:13:30;;;;;;;6.23;5.73;;;;;;;;;;5073441;28;20769;-82
2021/12/25 06:15:58;;;;;;;6.13;5.25;;;;;;;;;;5074280;28;20471;-81
2021/12/25 06:18:25;;;;;;;6.67;6.07;;;;;;;;;;5073950;28;20209;-82
2021/12/25 06:20:52;;;;;;;7.07;6.40;;;;;;;;;;5073656;28;20474;-81
2021/12/25 06:23:19;;;;;;;6.80;6.20;;;;;;;;;;5073209;28;20939;-81
2021/12/25 06:25:46;;;;;;;7.00;6.33;;;;;;;;;;5075170;28;20458;-80
2021/12/25 06:28:13;;;;;;;6.22;5.72;;;;;;;;;;5075220;28;20507;-81
2021/12/25 06:30:43;;;;;;;7.23;6.07;;;;;;;;;;5075281;28;20209;-80
2021/12/25 06:33:11;;;;;;;6.63;6.03;;;;;;;;;;5072913;28;20954;-79
2021/12/25 06:35:38;;;;;;;6.83;6.17;;;;;;;;;;5073089;28;20463;-81
2021/12/25 06:38:05;;;;;;;7.10;6.50;;;;;;;;;;5074350;28;20444;-79
2021/12/25 06:40:32;;;;;;;6.93;6.30;;;;;;;;;;5074689;28;20448;-79
2021/12/25 06:43:01;;;;;;;7.73;6.40;;;;;;;;;;5075320;28;20483;-82
2021/12/25 06:45:29;;;;;;;8.30;7.50;;;;;;;;;;5075747;28;20546;-81
2021/12/25 06:47:56;;;;;;;7.90;7.20;;;;;;;;;;5075691;28;20946;-80
2021/12/25 06:50:25;;;;;;;5.97;5.47;;;;;;;;;;5070494;28;20455;-79
2021/12/25 06:52:52;;;;;;;6.40;5.33;;;;;;;;;;5056083;28;20535;-80
2021/12/25 06:55:19;;;;;;;5.63;5.13;;;;;;;;;;5055286;28;20536;-80
2021/12/25 06:57:52;;;;;;;7.18;6.10;;;;;;;;;;5056600;28;20826;-81
2021/12/25 07:00:19;;;;;;;6.37;5.77;;;;;;;;;;5055592;28;20191;-82
2021/12/25 07:02:46;;;;;;;6.40;5.80;;;;;;;;;;5055044;28;20445;-80
2021/12/25 07:05:13;;;;;;;5.60;5.10;;;;;;;;;;5055440;28;20474;-80
2021/12/25 07:07:43;;;;;;;4.97;4.57;;;;;;;;;;5053414;28;20235;-79
2021/12/25 07:10:10;;;;;;;5.27;4.77;;;;;;;;;;5053854;28;20464;-82
2021/12/25 07:12:39;;;;;;;5.47;5.07;;;;;;;;;;5053627;28;20482;-79
2021/12/25 07:15:06;;;;;;;5.22;4.82;;;;;;;;;;5053711;28;20457;-80
2021/12/25 07:17:33;;;;;;;5.37;4.43;;;;;;;;;;5053497;28;20576;-80
2021/12/25 07:20:01;;;;;;;5.60;4.93;;;;;;;;;;5053547;28;20470;-79
2021/12/25 07:22:28;;;;;;;5.40;4.90;;;;;;;;;;5054012;28;20507;-80
2021/12/25 07:24:56;;;;;;;5.13;4.72;;;;;;;;;;5056636;28;20471;-81
2021/12/25 07:27:24;;;;;;;5.70;5.20;;;;;;;;;;5055449;28;20237;-79
2021/12/25 07:29:51;;;;;;;5.03;4.57;;;;;;;;;;5056428;28;20968;-81
2021/12/25 07:32:18;;;;;;;5.03;4.63;;;;;;;;;;5054552;28;20476;-79
2021/12/25 07:34:46;;;;;;;4.57;4.27;;;;;;;;;;5055009;28;20448;-81
2021/12/25 07:37:13;;;;;;;5.20;4.50;;;;;;;;;;5056628;28;20507;-80
2021/12/25 07:39:40;;;;;;;5.50;5.00;;;;;;;;;;5056442;28;20487;-81
2021/12/25 07:42:09;;;;;;;6.10;5.17;;;;;;;;;;5053584;28;20441;-82
2021/12/25 07:44:36;;;;;;;7.13;5.43;;;;;;;;;;5056607;28;20454;-81
2021/12/25 07:47:08;;;;;;;5.43;4.87;;;;;;;;;;5056954;28;20432;-81
2021/12/25 07:49:35;;;;;;;6.50;5.90;;;;;;;;;;5056862;28;20426;-81
2021/12/25 07:52:02;;;;;;;5.93;5.43;;;;;;;;;;5056450;28;20480;-80
2021/12/25 07:54:29;;;;;;;5.50;4.67;;;;;;;;;;5053291;28;20469;-79
2021/12/25 07:56:56;;;;;;;5.57;5.07;;;;;;;;;;5054246;28;20503;-80
2021/12/25 07:59:25;;;;;;;5.13;4.70;;;;;;;;;;5052526;28;20447;-80
2021/12/25 08:01:53;;;;;;;7.37;4.83;;;;;;;;;;5054251;28;20441;-81
2021/12/25 08:04:21;;;;;;;4.97;4.57;;;;;;;;;;5054326;28;20434;-79
2021/12/25 08:06:48;;;;;;;4.63;4.23;;;;;;;;;;5056673;28;20905;-81
2021/12/25 08:09:17;;;;;;;4.80;4.40;;;;;;;;;;5056251;28;20437;-80
2021/12/25 08:11:45;;;;;;;4.80;4.40;;;;;;;;;;5056779;28;20510;-81
2021/12/25 08:14:13;;;;;;;5.00;4.50;;;;;;;;;;5055115;28;20426;-81
2021/12/25 08:16:42;;;;;;;5.00;4.60;;;;;;;;;;5059086;28;20293;-82
2021/12/25 08:19:09;;;;;;;5.10;4.70;;;;;;;;;;5056193;28;20460;-80
2021/12/25 08:21:36;;;;;;;5.23;4.83;;;;;;;;;;5055268;28;20907;-81
2021/12/25 08:24:03;;;;;;;5.53;5.03;;;;;;;;;;5055302;28;20447;-81
2021/12/25 08:26:30;;;;;;;4.63;4.17;;;;;;;;;;5055848;28;20468;-80
2021/12/25 08:28:57;;;;;;;4.90;4.60;;;;;;;;;;5054458;28;20444;-80
2021/12/25 08:31:24;;;;;;;4.70;4.28;;;;;;;;;;5055065;28;20477;-81
2021/12/25 08:33:52;;;;;;;5.67;4.50;;;;;;;;;;5054665;28;20682;-82
2021/12/25 08:36:19;;;;;;;5.23;4.40;;;;;;;;;;5053677;28;20515;-80
2021/12/25 08:38:46;;;;;;;5.20;4.80;;;;;;;;;;5054086;28;20931;-80
2021/12/25 08:41:13;;;;;;;4.30;3.90;;;;;;;;;;5051710;28;20536;-79
2021/12/25 08:43:46;;;;;;;5.30;4.90;;;;;;;;;;5058183;28;20444;-80
2021/12/25 08:46:17;;;;;;;5.15;4.47;;;;;;;;;;5058732;28;20469;-80
2021/12/25 08:48:44;;;;;;;5.43;4.60;;;;;;;;;;5057562;28;20665;-80
2021/12/25 08:51:13;;;;;;;4.27;3.87;;;;;;;;;;5058311;28;20444;-80
2021/12/25 08:53:40;;;;;;;5.33;4.83;;;;;;;;;;5057689;28;20449;-81
2021/12/25 08:56:07;;;;;;;4.53;4.13;;;;;;;;;;5055185;28;20475;-79
2021/12/25 08:58:34;;;;;;;4.00;3.70;;;;;;;;;;5057254;28;20451;-80
2021/12/25 09:01:06;;;;;;;4.60;4.20;;;;;;;;;;5064337;28;20973;-81
2021/12/25 09:03:33;;;;;;;6.27;5.73;;;;;;;;;;5075458;28;20426;-81
2021/12/25 09:06:01;;;;;;;5.30;4.90;;;;;;;;;;5078825;28;20876;-80
2021/12/25 09:08:30;;;;;;;7.53;4.97;;;;;;;;;;5078202;28;20451;-79
2021/12/25 09:10:57;;;;;;;5.50;5.03;;;;;;;;;;5063241;28;20940;-81
2021/12/25 09:13:24;;;;;;;6.90;6.30;;;;;;;;;;5055834;28;20503;-79
2021/12/25 09:15:52;;;;;;;5.97;5.47;;;;;;;;;;5055733;28;20473;-80
2021/12/25 09:18:19;;;;;;;6.80;6.20;;;;;;;;;;5058134;28;20491;-80
2021/12/25 09:20:46;;;;;;;6.07;5.53;;;;;;;;;;5058472;28;20449;-81
2021/12/25 09:23:13;;;;;;;6.20;5.70;;;;;;;;;;5064138;28;20464;-82
2021/12/25 09:25:42;;;;;;;5.40;4.90;;;;;;;;;;5073645;28;20446;-80
2021/12/25 09:28:09;;;;;;;5.43;5.03;;;;;;;;;;5073782;28;20422;-81
2021/12/25 09:30:36;;;;;;;5.70;5.20;;;;;;;;;;5073679;28;20440;-81
2021/12/25 09:33:04;;;;;;;5.77;5.27;;;;;;;;;;5062467;28;20227;-80
2021/12/25 09:35:31;;;;;;;5.50;5.10;;;;;;;;;;5055688;28;20457;-81
2021/12/25 09:37:58;;;;;;;6.77;5.20;;;;;;;;;;5063075;28;20881;-80
2021/12/25 09:40:25;;;;;;;9.30;6.97;;;;;;;;;;5076641;28;20441;-81
2021/12/25 09:42:55;;;;;;;6.37;4.53;;;;;;;;;;5074617;28;20198;-81
2021/12/25 09:45:22;;;;;;;2.70;2.50;;;;;;;;;;5075851;28;20548;-82
2021/12/25 09:47:49;;;;;;;5.00;4.60;;;;;;;;;;5075876;28;20441;-80
2021/12/25 09:50:16;;;;;;;3.60;3.30;;;;;;;;;;5076109;28;20452;-80
2021/12/25 09:52:44;;;;;;;3.10;2.90;;;;;;;;;;5075965;28;20545;-81
2021/12/25 09:55:11;;;;;;;2.80;2.60;;;;;;;;;;5075450;28;20453;-82
2021/12/25 09:57:39;;;;;;;3.10;2.80;;;;;;;;;;5075458;28;20425;-80
2021/12/25 10:00:10;;;;;;;3.70;3.40;;;;;;;;;;5076278;28;20456;-81
2021/12/25 10:02:42;;;;;;;3.40;3.20;;;;;;;;;;5076943;28;20436;-81
2021/12/25 10:05:10;;;;;;;2.57;2.47;;;;;;;;;;5077515;28;20472;-82
2021/12/25 10:07:37;;;;;;;2.75;2.60;;;;;;;;;;5077343;28;20462;-80
2021/12/25 10:10:07;;;;;;;3.87;2.83;;;;;;;;;;5076096;28;20208;-81
2021/12/25 10:12:38;;;;;;;3.33;3.03;;;;;;;;;;5075737;28;20587;-80
2021/12/25 10:15:06;;;;;;;2.67;2.47;;;;;;;;;;5076783;28;20810;-81
2021/12/25 10:17:34;;;;;;;1.50;1.40;;;;;;;;;;5078103;28;20441;-82
2021/12/25 10:20:07;;;;;;;2.00;1.90;;;;;;;;;;5075138;28;20202;-80
2021/12/25 10:22:34;;;;;;;1.97;1.87;;;;;;;;;;5076026;28;20822;-80
2021/12/25 10:25:07;;;;;;;1.55;1.55;;;;;;;;;;5077730;28;20964;-81
2021/12/25 10:27:35;;;;;;;2.30;2.20;;;;;;;;;;5076112;28;20202;-80
2021/12/25 10:30:03;;;;;;;2.23;2.13;;;;;;;;;;5075280;28;20437;-80
2021/12/25 10:32:30;;;;;;;1.93;1.83;;;;;;;;;;5076218;28;20561;-81
2021/12/25 10:34:59;;;;;;;1.77;1.50;;;;;;;;;;5075231;28;20472;-81
2021/12/25 10:37:26;;;;;;;1.90;1.77;;;;;;;;;;5077635;28;20444;-80
2021/12/25 10:39:54;;;;;;;1.83;1.73;;;;;;;;;;5076972;28;20439;-81
2021/12/25 10:42:23;;;;;;;1.63;1.53;;;;;;;;;;5076276;28;20191;-81
2021/12/25 10:44:51;;;;;;;1.70;1.60;;;;;;;;;;5076531;28;20950;-80
2021/12/25 10:47:20;;;;;;;1.60;1.50;;;;;;;;;;5077150;28;20449;-81
2021/12/25 10:49:48;;;;;;;1.43;1.43;;;;;;;;;;5077692;28;20800;-80
2021/12/25 10:52:20;;;;;;;1.42;1.42;;;;;;;;;;5077059;28;20482;-82
2021/12/25 10:54:48;;;;;;;2.73;2.13;;;;;;;;;;5076996;28;20192;-81
2021/12/25 10:57:31;;;;;;;4.13;2.85;;;;;;;;;;5076968;28;20444;-81
2021/12/25 10:59:58;;;;;;;2.03;1.93;;;;;;;;;;5072774;28;20222;-81
2021/12/25 11:02:32;;;;;;;2.03;1.93;;;;;;;;;;5076234;28;20486;-82
2021/12/25 11:04:59;;;;;;;2.40;1.93;;;;;;;;;;5075079;28;20467;-83
2021/12/25 11:07:28;;;;;;;2.10;2.00;;;;;;;;;;5077082;28;20440;-80
2021/12/25 11:10:06;;;;;;;1.70;1.60;;;;;;;;;;5076954;28;20464;-81
2021/12/25 11:12:34;;;;;;;2.00;1.90;;;;;;;;;;5075951;28;20498;-83
2021/12/25 11:15:09;;;;;;;2.22;1.88;;;;;;;;;;5077350;28;20551;-81
2021/12/25 11:17:39;;;;;;;1.87;1.77;;;;;;;;;;5076889;28;20657;-81
2021/12/25 11:20:08;;;;;;;2.07;1.93;;;;;;;;;;5072920;28;20860;-81
2021/12/25 11:22:47;;;;;;;2.27;2.07;;;;;;;;;;5077239;28;20429;-81
2021/12/25 11:25:14;;;;;;;1.50;1.50;;;;;;;;;;5076596;28;20468;-82
2021/12/25 11:27:42;;;;;;;1.80;1.70;;;;;;;;;;5076118;28;20452;-82
2021/12/25 11:30:09;;;;;;;1.80;1.70;;;;;;;;;;5076651;28;20445;-81
2021/12/25 11:32:36;;;;;;;2.20;1.77;;;;;;;;;;5076154;28;20472;-81
2021/12/25 11:35:04;;;;;;;2.35;2.05;;;;;;;;;;5080457;28;20664;-83
2021/12/25 11:37:31;;;;;;;2.03;1.93;;;;;;;;;;5079376;28;20205;-81
2021/12/25 11:40:00;;;;;;;2.23;2.03;;;;;;;;;;5080084;28;20494;-82
2021/12/25 11:42:29;;;;;;;2.23;2.13;;;;;;;;;;5081392;28;20837;-81
2021/12/25 11:44:56;;;;;;;2.57;2.37;;;;;;;;;;5083278;28;20992;-80
2021/12/25 11:47:31;;;;;;;2.53;2.30;;;;;;;;;;5081445;28;20441;-82
2021/12/25 11:49:59;;;;;;;2.30;2.10;;;;;;;;;;5083360;28;20990;-82
2021/12/25 11:52:30;;;;;;;2.30;2.10;;;;;;;;;;5082086;28;20511;-82
2021/12/25 11:55:14;;;;;;;2.30;2.10;;;;;;;;;;5080808;28;21297;-82
2021/12/25 11:57:51;;;;;;;1.88;1.70;;;;;;;;;;5065968;28;20452;-82
2021/12/25 12:00:33;;;;;;;3.63;2.20;;;;;;;;;;5068702;28;20208;-81
2021/12/25 12:03:00;;;;;;;1.80;1.70;;;;;;;;;;5077246;28;20444;-81
2021/12/25 12:05:29;;;;;;;2.00;1.90;;;;;;;;;;5076533;28;20529;-83
2021/12/25 12:08:02;;;;;;;2.13;1.97;;;;;;;;;;5078208;28;20449;-81
2021/12/25 12:10:48;;;;;;;2.10;2.00;;;;;;;;;;5078169;28;20445;-82
2021/12/25 12:13:17;;;;;;;2.00;1.90;;;;;;;;;;5076723;28;20489;-82
2021/12/25 12:15:46;;;;;;;2.27;2.17;;;;;;;;;;5076272;28;20472;-82
2021/12/25 12:18:33;;;;;;;2.17;2.07;;;;;;;;;;5077652;28;20444;-82
2021/12/25 12:21:06;;;;;;;1.90;1.80;;;;;;;;;;5079161;28;20441;-81
2021/12/25 12:23:41;;;;;;;3.37;2.60;;;;;;;;;;5078737;28;20451;-80
2021/12/25 12:26:11;;;;;;;2.40;2.20;;;;;;;;;;5078973;28;20468;-82
2021/12/25 12:28:52;;;;;;;2.07;1.97;;;;;;;;;;5078536;28;20440;-80
2021/12/25 12:31:35;;;;;;;2.77;2.40;;;;;;;;;;5079898;28;20448;-81
2021/12/25 12:34:02;;;;;;;3.20;2.40;;;;;;;;;;5082849;28;20465;-80
2021/12/25 12:36:30;;;;;;;2.10;1.90;;;;;;;;;;5081851;28;20449;-80
2021/12/25 12:39:18;;;;;;;2.10;2.00;;;;;;;;;;5081644;28;20440;-81
2021/12/25 12:41:51;;;;;;;2.00;1.90;;;;;;;;;;5080828;28;20444;-81
2021/12/25 12:44:28;;;;;;;2.13;2.03;;;;;;;;;;5081639;28;20451;-81
2021/12/25 12:47:06;;;;;;;1.83;1.73;;;;;;;;;;5081790;28;20530;-80
2021/12/25 12:49:48;;;;;;;2.77;2.27;;;;;;;;;;5079836;28;20182;-81
2021/12/25 12:52:17;;;;;;;2.63;2.43;;;;;;;;;;5076402;28;20987;-79
2021/12/25 12:54:46;;;;;;;4.07;2.37;;;;;;;;;;5085979;28;20476;-80
2021/12/25 12:57:17;;;;;;;2.47;2.27;;;;;;;;;;5092245;28;20464;-80
2021/12/25 12:59:47;;;;;;;2.05;1.95;;;;;;;;;;5092635;28;20481;-80
2021/12/25 13:02:14;;;;;;;4.20;3.87;;;;;;;;;;5090291;28;20205;-82
2021/12/25 13:04:45;;;;;;;4.50;4.10;;;;;;;;;;5085496;28;20463;-82
2021/12/25 13:07:13;;;;;;;3.33;3.13;;;;;;;;;;5084678;28;20433;-81
2021/12/25 13:09:46;;;;;;;2.80;2.60;;;;;;;;;;5080735;28;20545;-80
2021/12/25 13:12:29;;;;;;;3.63;3.37;;;;;;;;;;5082167;28;20453;-80
2021/12/25 13:15:02;;;;;;;3.72;3.33;;;;;;;;;;5083658;28;20457;-80
2021/12/25 13:17:29;;;;;;;3.45;3.15;;;;;;;;;;5082298;28;20200;-81
2021/12/25 13:19:56;;;;;;;3.90;3.60;;;;;;;;;;5080321;28;20202;-80
2021/12/25 13:22:24;;;;;;;4.13;3.75;;;;;;;;;;5080811;28;20460;-80
2021/12/25 13:24:55;;;;;;;3.87;3.57;;;;;;;;;;5078257;28;20198;-81
2021/12/25 13:27:23;;;;;;;4.47;4.17;;;;;;;;;;5079237;28;20442;-81
2021/12/25 13:29:50;;;;;;;3.67;3.37;;;;;;;;;;5078871;28;20472;-80
2021/12/25 13:32:29;;;;;;;4.03;3.67;;;;;;;;;;5085548;28;20429;-81
2021/12/25 13:34:57;;;;;;;5.63;5.10;;;;;;;;;;5091878;28;20611;-81
2021/12/25 13:37:24;;;;;;;11.07;9.40;;;;;;;;;;5087763;28;20444;-79
2021/12/25 13:39:51;;;;;;;4.30;3.80;;;;;;;;;;5095923;28;20436;-81
2021/12/25 13:42:18;;;;;;;5.37;4.37;;;;;;;;;;5098378;28;20433;-83
2021/12/25 13:44:46;;;;;;;4.30;3.90;;;;;;;;;;5092060;28;20445;-80
2021/12/25 13:47:17;;;;;;;3.67;3.47;;;;;;;;;;5085031;28;20444;-81
2021/12/25 13:49:47;;;;;;;4.13;3.80;;;;;;;;;;5084211;28;20429;-80
2021/12/25 13:52:15;;;;;;;3.70;3.40;;;;;;;;;;5090156;28;20509;-81
2021/12/25 13:54:43;;;;;;;3.60;3.30;;;;;;;;;;5084218;28;20464;-81
2021/12/25 13:57:11;;;;;;;4.13;3.77;;;;;;;;;;5094482;28;20441;-82
2021/12/25 13:59:38;;;;;;;4.73;4.03;;;;;;;;;;5098267;28;20459;-82
2021/12/25 14:02:06;;;;;;;4.00;3.70;;;;;;;;;;5098060;28;20417;-82
2021/12/25 14:04:34;;;;;;;4.33;4.00;;;;;;;;;;5098031;28;20441;-81
2021/12/25 14:07:02;;;;;;;4.90;4.40;;;;;;;;;;5098233;28;20455;-81
2021/12/25 14:09:29;;;;;;;4.50;4.20;;;;;;;;;;5097911;28;20433;-82
2021/12/25 14:11:57;;;;;;;4.63;4.30;;;;;;;;;;5098455;28;20447;-82
2021/12/25 14:14:25;;;;;;;5.63;5.13;;;;;;;;;;5087631;28;20900;-81
2021/12/25 14:16:53;;;;;;;5.07;4.50;;;;;;;;;;5078530;28;20453;-80
2021/12/25 14:19:20;;;;;;;5.32;4.82;;;;;;;;;;5078485;28;20588;-80
2021/12/25 14:21:54;;;;;;;5.60;5.00;;;;;;;;;;5077072;28;20600;-81
2021/12/25 14:24:22;;;;;;;6.20;5.60;;;;;;;;;;5086790;28;20456;-82
2021/12/25 14:26:49;;;;;;;5.70;5.20;;;;;;;;;;5082195;28;20460;-80
2021/12/25 14:29:20;;;;;;;6.35;5.85;;;;;;;;;;5077932;28;20438;-81
2021/12/25 14:31:47;;;;;;;6.70;6.10;;;;;;;;;;5078713;28;20194;-82
2021/12/25 14:34:14;;;;;;;6.93;5.80;;;;;;;;;;5078442;28;20519;-81
2021/12/25 14:36:43;;;;;;;7.10;6.40;;;;;;;;;;5074652;28;20475;-81
2021/12/25 14:39:14;;;;;;;7.53;6.80;;;;;;;;;;5074133;28;20805;-81
2021/12/25 14:41:43;;;;;;;7.83;5.90;;;;;;;;;;5074187;28;20935;-81
2021/12/25 14:44:18;;;;;;;6.33;5.77;;;;;;;;;;5074325;28;20437;-81
2021/12/25 14:46:45;;;;;;;7.70;6.93;;;;;;;;;;5076423;28;20463;-81
2021/12/25 14:49:12;;;;;;;8.00;7.37;;;;;;;;;;5078620;28;20960;-80
2021/12/25 14:51:41;;;;;;;8.07;7.27;;;;;;;;;;5076323;28;20447;-80
2021/12/25 14:54:09;;;;;;;9.18;7.90;;;;;;;;;;5076737;28;20468;-80
2021/12/25 14:56:37;;;;;;;9.37;8.60;;;;;;;;;;5075095;28;20206;-81
2021/12/25 14:59:06;;;;;;;15.17;9.43;;;;;;;;;;5074445;28;20436;-81
2021/12/25 15:01:36;;;;;;;11.27;8.85;;;;;;;;;;5085446;28;20441;-82
2021/12/25 15:04:05;;;;;;;10.93;9.30;;;;;;;;;;5083163;28;20206;-81
2021/12/25 15:06:33;;;;;;;9.73;8.90;;;;;;;;;;5081177;28;20465;-82
2021/12/25 15:09:05;;;;;;;11.60;10.60;;;;;;;;;;5078454;28;20448;-82
2021/12/25 15:11:33;;;;;;;10.80;9.90;;;;;;;;;;5082778;28;20456;-80
2021/12/25 15:14:01;;;;;;;10.00;9.10;;;;;;;;;;5083368;28;20483;-80
2021/12/25 15:16:40;;;;;;;11.17;10.10;;;;;;;;;;5082676;28;20460;-81
2021/12/25 15:19:08;;;;;;;10.57;9.67;;;;;;;;;;5085421;28;20857;-82
2021/12/25 15:21:46;;;;;;;11.23;10.38;;;;;;;;;;5084226;28;20448;-81
2021/12/25 15:24:16;;;;;;;10.00;9.20;;;;;;;;;;5084679;28;20208;-81
2021/12/25 15:26:44;;;;;;;9.97;9.00;;;;;;;;;;5079982;28;20477;-80
2021/12/25 15:29:11;;;;;;;10.20;9.20;;;;;;;;;;5085616;28;20443;-81
2021/12/25 15:31:40;;;;;;;10.00;9.10;;;;;;;;;;5076738;28;20451;-81
2021/12/25 15:34:08;;;;;;;10.63;9.63;;;;;;;;;;5077231;28;20900;-81